Airfield :
LOGIN :

Register | Disclaimer

   EN    FR    IT 

 










Legend :    VFR   Marginal VFR   IFR   Intensive IFR   Very Intensive IFR
Visi :
Ceiling :
>= 8 km
>= 3000ft
5 to 8 km
1000 to 3000 ft
1500m to 5 km
500 to 1000 ft
800 to 1500m
200 to 500 ft
< 800m
< 200 ft
Symbols :   Thunderstorms  Fog  Heavy snow  Heavy precipitations  Wind > 20 kt
SIGMETs :     Misc.  Thunderstorms  Icing  Turbulence  Mountain Waves  Volcanic Ashes






- Airport Elevation : 102 ft
- IATA code : EXT


EGTE - Exeter

CURRENT METAR :
  • 231820Z 15003KT 7000 -RA FEW005 BKN047 12/12 Q1008

EXPIRED METARs :
  • 231750Z 12001KT 5000 -RA BR FEW005 BKN045 11/10 Q1008
  • 231720Z 00000KT 7000 3000SW FEW005 12/12 Q1008
  • 231650Z VRB02KT 8000 MIFG FEW008 13/12 Q1007
  • 231620Z 00000KT 9000 FEW008 13/12 Q1008
  • 231550Z 26003KT 9000 SCT010 13/12 Q1009

TAF TAF EGTE
Valid from the 23 at 18:00 until the 24 at 03:00 UTC


231655Z 2318/2403 VRB03KT 9999 SCT025
TEMPO 2318/2403 7000 -RADZ BKN010
PROB30
TEMPO 2318/2324 3000 RADZ BKN005
BECMG 2400/2403 0300 FG BKN001



MET'MAP, your aeronautical weather chart ! - Copyright ORBIFLY December 2007 - Disclaimer

ORBIFLY MET'MAP TEAM :

Programming & Development : Alexandra Zaïnal
Concept & Development : Baudouin d'Aumeries
Co-Development & Prog : Marc-Olivier Méhu
Technical & hardware support : Manuel Goepfert

Contact : metmap@orbifly.com




SOURCES & CREDITS :

   NOAA